createdAt,value
2023-01-03T00:01:51.766Z,102269.66
2023-01-03T00:04:21.962Z,102269.53
2023-01-03T00:06:51.662Z,102263.47
2023-01-03T00:09:22.707Z,102270.50
2023-01-03T00:12:10.882Z,102258.78
2023-01-03T00:14:40.819Z,102267.41
2023-01-03T00:17:09.584Z,102265.84
2023-01-03T00:19:43.087Z,102258.44
2023-01-03T00:22:11.954Z,102253.66
2023-01-03T00:24:40.160Z,102247.38
2023-01-03T00:27:08.629Z,102242.78
2023-01-03T00:29:36.796Z,102244.06
2023-01-03T00:32:05.408Z,102240.75
2023-01-03T00:34:34.639Z,102234.25
2023-01-03T00:37:03.313Z,102234.47
2023-01-03T00:39:31.351Z,102225.50
2023-01-03T00:41:58.984Z,102222.75
2023-01-03T00:44:26.764Z,102213.56
2023-01-03T00:46:54.546Z,102210.59
2023-01-03T00:49:26.646Z,102211.53
2023-01-03T00:51:55.762Z,102214.22
2023-01-03T00:54:24.044Z,102200.78
2023-01-03T00:56:52.675Z,102203.56
2023-01-03T00:59:21.379Z,102210.94
2023-01-03T01:01:54.375Z,102196.63
2023-01-03T01:04:29.093Z,102203.09
2023-01-03T01:07:04.444Z,102194.16
2023-01-03T01:09:35.683Z,102193.31
2023-01-03T01:12:05.425Z,102188.94
2023-01-03T01:14:33.921Z,102194.94
2023-01-03T01:17:07.924Z,102197.78
2023-01-03T01:19:42.433Z,102184.34
2023-01-03T01:22:13.336Z,102187.84
2023-01-03T01:24:41.723Z,102181.03
2023-01-03T01:27:09.475Z,102173.88
2023-01-03T01:29:38.981Z,102172.78
2023-01-03T01:32:07.342Z,102172.28
2023-01-03T01:34:34.962Z,102171.06
2023-01-03T01:37:02.620Z,102170.00
2023-01-03T01:39:30.825Z,102164.75
2023-01-03T01:42:24.047Z,102174.59
2023-01-03T01:44:59.004Z,102171.09
2023-01-03T01:47:47.588Z,102169.94
2023-01-03T01:50:43.638Z,102168.13
2023-01-03T01:53:24.200Z,102163.41
2023-01-03T01:56:00.858Z,102165.66
2023-01-03T01:58:35.027Z,102161.72
2023-01-03T02:01:17.991Z,102153.41
2023-01-03T02:03:52.495Z,102149.72
2023-01-03T02:06:20.458Z,102148.59
2023-01-03T02:08:48.537Z,102144.00
2023-01-03T02:11:25.091Z,102141.88
2023-01-03T02:14:15.348Z,102146.56
2023-01-03T02:17:21.054Z,102130.13
2023-01-03T02:19:48.636Z,102131.78
2023-01-03T02:22:53.420Z,102120.53
2023-01-03T02:25:27.200Z,102116.78
2023-01-03T02:28:13.799Z,102119.88
2023-01-03T02:30:52.600Z,102120.91
2023-01-03T02:33:41.952Z,102113.66
2023-01-03T02:36:09.537Z,102114.63
2023-01-03T02:38:42.884Z,102107.75
2023-01-03T02:41:35.339Z,102112.72
2023-01-03T02:44:11.633Z,102102.84
2023-01-03T02:47:07.671Z,102102.91
2023-01-03T02:49:41.714Z,102098.22
2023-01-03T02:52:16.891Z,102099.50
2023-01-03T02:54:51.499Z,102091.47
2023-01-03T02:57:24.669Z,102103.84
2023-01-03T03:00:00.909Z,102096.97
2023-01-03T03:02:35.492Z,102102.91
2023-01-03T03:05:08.479Z,102098.53
2023-01-03T03:07:39.418Z,102094.03
2023-01-03T03:10:27.779Z,102104.34
2023-01-03T03:13:13.514Z,102099.38
2023-01-03T03:16:10.118Z,102107.53
2023-01-03T03:18:57.597Z,102096.59
2023-01-03T03:21:49.838Z,102090.09
2023-01-03T03:24:40.674Z,102102.38
2023-01-03T03:27:31.383Z,102091.81
2023-01-03T03:30:03.215Z,102097.59
2023-01-03T03:32:34.435Z,102091.53
2023-01-03T03:35:04.781Z,102102.47
2023-01-03T03:37:39.011Z,102094.06
2023-01-03T03:40:26.744Z,102095.53
2023-01-03T03:43:34.755Z,102096.59
2023-01-03T03:46:13.207Z,102106.03
2023-01-03T03:49:14.192Z,102094.16
2023-01-03T03:51:45.009Z,102085.41
2023-01-03T03:54:18.713Z,102092.16
2023-01-03T03:56:53.080Z,102086.34
2023-01-03T03:59:22.882Z,102095.09
2023-01-03T04:01:52.536Z,102082.94
2023-01-03T04:04:29.459Z,102085.81
2023-01-03T04:06:57.250Z,102066.47
2023-01-03T04:09:24.970Z,102067.47
2023-01-03T04:11:52.752Z,102064.75
2023-01-03T04:14:20.526Z,102060.38
2023-01-03T04:16:48.395Z,102054.25
2023-01-03T04:19:16.018Z,102057.03
2023-01-03T04:21:43.578Z,102055.03
2023-01-03T04:24:11.310Z,102058.00
2023-01-03T04:26:38.934Z,102048.03
2023-01-03T04:29:06.855Z,102051.53
2023-01-03T04:31:35.403Z,102060.78
2023-01-03T04:34:03.206Z,102051.91
2023-01-03T04:36:30.892Z,102053.88
2023-01-03T04:38:58.401Z,102053.88
2023-01-03T04:41:26.036Z,102045.09
2023-01-03T04:44:02.429Z,102046.38
2023-01-03T04:46:36.625Z,102044.28
2023-01-03T04:49:05.800Z,102045.00
2023-01-03T04:51:36.550Z,102038.44
2023-01-03T04:54:06.132Z,102038.97
2023-01-03T04:56:36.653Z,102033.25
2023-01-03T04:59:05.205Z,102037.47
2023-01-03T05:01:33.083Z,102038.31
2023-01-03T05:04:02.528Z,102037.50
2023-01-03T05:06:30.281Z,102037.97
2023-01-03T05:08:57.959Z,102029.00
2023-01-03T05:11:25.636Z,102035.78
2023-01-03T05:13:53.377Z,102024.88
2023-01-03T05:16:21.099Z,102020.88
2023-01-03T05:18:51.544Z,102022.00
2023-01-03T05:21:40.560Z,102019.47
2023-01-03T05:24:30.049Z,102016.31
2023-01-03T05:27:00.943Z,102016.41
2023-01-03T05:29:30.314Z,102015.19
2023-01-03T05:31:59.672Z,102012.50
2023-01-03T05:34:27.459Z,102015.44
2023-01-03T05:36:55.118Z,102007.81
2023-01-03T05:39:22.913Z,102015.03
2023-01-03T05:41:59.658Z,102015.28
2023-01-03T05:44:29.426Z,102013.13
2023-01-03T05:46:58.668Z,102013.38
2023-01-03T05:49:26.909Z,102016.56
2023-01-03T05:51:54.488Z,102019.34
2023-01-03T05:54:22.789Z,102020.91
2023-01-03T05:56:51.379Z,102021.44
2023-01-03T05:59:20.006Z,102026.88
2023-01-03T06:01:47.650Z,102021.44
2023-01-03T06:04:15.415Z,102016.59
2023-01-03T06:06:43.332Z,102018.75
2023-01-03T06:09:11.393Z,102023.47
2023-01-03T06:11:41.272Z,102017.66
2023-01-03T06:14:09.127Z,102016.34
2023-01-03T06:16:59.384Z,102020.94
2023-01-03T06:19:27.500Z,102020.44
2023-01-03T06:21:55.156Z,102029.69
2023-01-03T06:24:23.103Z,102027.88
2023-01-03T06:26:50.686Z,102027.75
2023-01-03T06:29:18.265Z,102022.66
2023-01-03T06:31:45.836Z,102024.97
2023-01-03T06:34:13.452Z,102023.00
2023-01-03T06:36:41.041Z,102017.81
2023-01-03T06:39:09.353Z,102020.94
2023-01-03T06:41:38.074Z,102016.84
2023-01-03T06:44:05.706Z,102025.28
2023-01-03T06:46:51.699Z,102010.59
2023-01-03T06:49:38.436Z,102017.16
2023-01-03T06:52:31.681Z,102015.81
2023-01-03T06:54:59.284Z,102015.13
2023-01-03T06:57:27.547Z,102010.97
2023-01-03T06:59:57.738Z,102005.25
2023-01-03T07:02:26.252Z,101997.47
2023-01-03T07:04:53.886Z,101997.31
2023-01-03T07:07:21.519Z,102004.63
2023-01-03T07:09:49.320Z,102007.00
2023-01-03T07:12:38.275Z,102009.44
2023-01-03T07:15:06.504Z,102001.75
2023-01-03T07:17:35.646Z,102006.66
2023-01-03T07:20:03.868Z,102001.97
2023-01-03T07:22:31.839Z,102002.41
2023-01-03T07:24:59.894Z,102003.25
2023-01-03T07:27:27.929Z,102003.34
2023-01-03T07:29:55.773Z,101998.56
2023-01-03T07:32:23.482Z,102000.19
2023-01-03T07:34:51.674Z,101994.91
2023-01-03T07:37:20.222Z,101999.13
2023-01-03T07:39:47.873Z,101992.16
2023-01-03T07:42:34.777Z,101984.56
2023-01-03T07:45:02.487Z,101986.72
2023-01-03T07:47:30.228Z,101974.84
2023-01-03T07:49:57.966Z,101977.53
2023-01-03T07:52:27.749Z,101968.84
2023-01-03T07:54:55.437Z,101961.28
2023-01-03T07:57:23.185Z,101966.34
2023-01-03T07:59:52.775Z,101967.50
2023-01-03T08:02:21.028Z,101962.69
2023-01-03T08:04:48.940Z,101961.25
2023-01-03T08:07:16.711Z,101956.44
2023-01-03T08:10:03.056Z,101956.22
2023-01-03T08:12:49.888Z,101951.09
2023-01-03T08:15:17.598Z,101950.22
2023-01-03T08:17:45.380Z,101949.94
2023-01-03T08:20:14.491Z,101943.69
2023-01-03T08:22:42.241Z,101936.53
2023-01-03T08:25:11.717Z,101940.59
2023-01-03T08:27:42.817Z,101936.09
2023-01-03T08:30:14.795Z,101935.16
2023-01-03T08:32:42.890Z,101927.00
2023-01-03T08:35:11.540Z,101930.84
2023-01-03T08:37:39.559Z,101922.22
2023-01-03T08:40:10.945Z,101919.69
2023-01-03T08:42:39.745Z,101905.50
2023-01-03T08:45:12.716Z,101900.41
2023-01-03T08:47:43.170Z,101899.44
2023-01-03T08:50:13.274Z,101883.16
2023-01-03T08:52:41.419Z,101877.31
2023-01-03T08:55:10.007Z,101875.00
2023-01-03T08:57:38.148Z,101879.13
2023-01-03T09:00:06.840Z,101865.22
2023-01-03T09:02:36.565Z,101862.78
2023-01-03T09:25:37.117Z,101815.59
2023-01-03T09:28:15.371Z,101802.47
2023-01-03T09:31:02.133Z,101811.53
2023-01-03T09:39:28.703Z,101787.88
2023-01-03T09:42:21.387Z,101787.66
2023-01-03T09:54:00.810Z,101767.41
2023-01-03T09:56:51.723Z,101764.88
2023-01-03T09:59:38.095Z,101755.59
2023-01-03T10:03:02.235Z,101755.66
2023-01-03T10:06:07.570Z,101749.63
2023-01-03T10:08:42.444Z,101757.75
2023-01-03T10:11:26.709Z,101739.22
2023-01-03T10:14:32.045Z,101729.81
2023-01-03T10:17:11.873Z,101746.44
2023-01-03T10:19:57.570Z,101732.19
2023-01-03T10:22:28.953Z,101732.53
2023-01-03T10:24:59.665Z,101715.50
2023-01-03T10:27:30.201Z,101716.44
2023-01-03T10:30:02.148Z,101729.59
2023-01-03T10:32:57.560Z,101722.03
2023-01-03T10:35:33.370Z,101723.94
2023-01-03T10:38:01.367Z,101723.72
2023-01-03T10:40:40.431Z,101709.94
2023-01-03T10:43:41.267Z,101701.84
2023-01-03T10:46:23.803Z,101700.88
2023-01-03T10:49:26.136Z,101704.75
2023-01-03T10:51:47.287Z,101701.50
2023-01-03T10:54:17.953Z,101701.41
2023-01-03T10:56:47.657Z,101701.91
2023-01-03T10:59:15.423Z,101700.38
2023-01-03T11:02:09.503Z,101693.47
2023-01-03T11:04:39.837Z,101698.19
2023-01-03T11:07:13.585Z,101685.53
2023-01-03T11:09:54.594Z,101687.72
2023-01-03T11:12:37.749Z,101690.28
2023-01-03T11:15:38.014Z,101693.50
2023-01-03T11:18:17.864Z,101676.97
2023-01-03T11:21:10.244Z,101691.09
2023-01-03T11:24:01.733Z,101695.66
2023-01-03T11:26:55.073Z,101676.28
2023-01-03T11:29:25.598Z,101675.78
2023-01-03T11:32:19.227Z,101678.31
2023-01-03T11:35:25.593Z,101683.19
2023-01-03T11:38:01.531Z,101668.22
2023-01-03T11:40:58.248Z,101670.84
2023-01-03T11:43:34.880Z,101680.28
2023-01-03T11:46:21.430Z,101675.59
2023-01-03T11:49:02.256Z,101669.19
2023-01-03T11:51:42.178Z,101670.47
2023-01-03T11:54:32.319Z,101670.03
2023-01-03T11:57:12.574Z,101663.41
2023-01-03T11:59:46.469Z,101673.91
2023-01-03T12:02:32.584Z,101651.97
2023-01-03T12:05:35.253Z,101661.06
2023-01-03T12:08:18.051Z,101661.75
2023-01-03T12:10:48.466Z,101654.16
2023-01-03T12:13:42.224Z,101659.78
2023-01-03T12:16:23.655Z,101661.09
2023-01-03T12:19:11.914Z,101674.44
2023-01-03T12:21:50.435Z,101667.53
2023-01-03T12:24:30.465Z,101651.00
2023-01-03T12:27:10.603Z,101641.53
2023-01-03T12:29:41.239Z,101648.56
2023-01-03T12:32:41.613Z,101650.00
2023-01-03T12:35:20.472Z,101645.44
2023-01-03T12:37:51.015Z,101648.31
2023-01-03T12:40:40.963Z,101646.13
2023-01-03T12:43:26.725Z,101637.53
2023-01-03T12:46:12.171Z,101633.28
2023-01-03T12:49:09.632Z,101631.63
2023-01-03T12:51:37.993Z,101629.91
2023-01-03T12:54:15.224Z,101641.88
2023-01-03T12:57:13.517Z,101645.59
2023-01-03T13:00:44.823Z,101644.59
2023-01-03T13:03:40.805Z,101640.03
2023-01-03T13:06:19.888Z,101652.69
2023-01-03T13:09:20.553Z,101651.31
2023-01-03T13:11:53.734Z,101651.16
2023-01-03T13:14:27.559Z,101662.81
2023-01-03T13:17:07.170Z,101660.78
2023-01-03T13:19:35.626Z,101661.75
2023-01-03T13:22:50.975Z,101654.16
2023-01-03T13:25:27.374Z,101651.31
2023-01-03T13:28:15.048Z,101660.38
2023-01-03T13:30:42.903Z,101652.81
2023-01-03T13:33:10.602Z,101648.94
2023-01-03T13:35:44.853Z,101664.44
2023-01-03T13:38:24.801Z,101666.81
2023-01-03T13:43:50.291Z,101679.63
2023-01-03T13:46:23.449Z,101668.28
2023-01-03T13:49:06.855Z,101672.50
2023-01-03T13:51:54.199Z,101675.03
2023-01-03T13:54:25.382Z,101671.13
2023-01-03T13:56:53.461Z,101663.69
2023-01-03T13:59:35.071Z,101672.13
2023-01-03T14:02:12.684Z,101666.84
2023-01-03T14:05:13.695Z,101674.06
2023-01-03T14:08:00.510Z,101670.53
2023-01-03T14:10:37.174Z,101663.81
2023-01-03T14:13:20.371Z,101674.25
2023-01-03T14:15:50.381Z,101670.84
2023-01-03T14:18:26.801Z,101661.41
2023-01-03T14:20:58.213Z,101669.47
2023-01-03T14:26:18.537Z,101662.94
2023-01-03T14:28:50.083Z,101668.84
2023-01-03T14:31:24.860Z,101662.63
2023-01-03T14:33:57.525Z,101663.06
2023-01-03T14:36:26.079Z,101667.59
2023-01-03T14:38:59.754Z,101669.50
2023-01-03T14:41:38.365Z,101669.00
2023-01-03T14:44:17.353Z,101664.69
2023-01-03T14:46:55.486Z,101668.59
2023-01-03T14:49:41.957Z,101680.56
2023-01-03T14:52:28.132Z,101675.34
2023-01-03T14:55:04.391Z,101673.63
2023-01-03T14:57:40.311Z,101674.63
2023-01-03T15:00:17.139Z,101672.44
2023-01-03T15:02:46.566Z,101672.38
2023-01-03T15:05:29.799Z,101688.06
2023-01-03T15:08:13.133Z,101686.69
2023-01-03T15:10:56.181Z,101675.94
2023-01-03T15:13:39.947Z,101680.44
2023-01-03T15:16:20.990Z,101676.09
2023-01-03T15:18:49.426Z,101684.56
2023-01-03T15:21:19.403Z,101681.03
2023-01-03T15:23:50.048Z,101690.47
2023-01-03T15:26:41.360Z,101688.25
2023-01-03T15:29:14.482Z,101685.25
2023-01-03T15:32:01.488Z,101695.25
2023-01-03T15:34:29.650Z,101696.84
2023-01-03T15:37:13.957Z,101704.66
2023-01-03T15:39:52.888Z,101708.84
2023-01-03T15:42:45.310Z,101707.00
2023-01-03T15:45:27.644Z,101709.44
2023-01-03T15:47:59.994Z,101712.56
2023-01-03T15:50:43.356Z,101708.50
2023-01-03T15:53:21.967Z,101721.00
2023-01-03T15:55:57.595Z,101720.75
2023-01-03T15:58:27.490Z,101720.97
2023-01-03T16:00:56.317Z,101723.09
2023-01-03T16:03:28.276Z,101736.72
2023-01-03T16:05:56.635Z,101729.41
2023-01-03T16:08:28.505Z,101734.00
2023-01-03T16:11:02.599Z,101735.28
2023-01-03T16:13:37.341Z,101719.06
2023-01-03T16:16:07.171Z,101731.75
2023-01-03T16:18:42.967Z,101737.16
2023-01-03T16:21:12.078Z,101746.19
2023-01-03T16:23:40.073Z,101754.38
2023-01-03T16:26:08.741Z,101759.72
2023-01-03T16:28:36.796Z,101765.53
2023-01-03T16:31:14.409Z,101765.34
2023-01-03T16:33:43.224Z,101766.63
2023-01-03T16:36:39.818Z,101770.59
2023-01-03T16:39:19.261Z,101772.13
2023-01-03T16:42:07.637Z,101771.56
2023-01-03T16:44:40.439Z,101773.84
2023-01-03T16:47:16.019Z,101773.13
2023-01-03T16:49:47.077Z,101775.81
2023-01-03T16:52:20.506Z,101763.97
2023-01-03T16:54:50.263Z,101763.13
2023-01-03T16:57:20.229Z,101765.09
2023-01-03T16:59:49.459Z,101764.53
2023-01-03T17:02:17.586Z,101758.34
2023-01-03T17:04:45.887Z,101767.91
2023-01-03T17:07:24.124Z,101775.66
2023-01-03T17:09:52.958Z,101772.16
2023-01-03T17:12:24.184Z,101773.25
2023-01-03T17:14:52.522Z,101772.25
2023-01-03T17:17:22.931Z,101770.00
2023-01-03T17:20:06.811Z,101773.69
2023-01-03T17:22:36.148Z,101781.19
2023-01-03T17:25:04.521Z,101773.78
2023-01-03T17:27:33.565Z,101774.69
2023-01-03T17:30:05.904Z,101773.13
2023-01-03T17:32:34.264Z,101776.66
2023-01-03T17:35:03.640Z,101778.63
2023-01-03T17:37:40.899Z,101778.34
2023-01-03T17:40:29.244Z,101773.13
2023-01-03T17:43:01.259Z,101773.81
2023-01-03T17:45:48.014Z,101778.78
2023-01-03T17:48:34.581Z,101769.56
2023-01-03T17:51:03.309Z,101778.44
2023-01-03T17:53:31.263Z,101775.50
2023-01-03T17:55:59.643Z,101774.38
2023-01-03T17:58:35.851Z,101779.75
2023-01-03T18:01:04.435Z,101771.56
2023-01-03T18:03:32.817Z,101780.72
2023-01-03T18:06:06.813Z,101768.75
2023-01-03T18:08:35.370Z,101770.28
2023-01-03T18:11:06.632Z,101781.19
2023-01-03T18:13:38.764Z,101785.97
2023-01-03T18:16:07.383Z,101787.38
2023-01-03T18:18:35.449Z,101783.28
2023-01-03T18:21:05.846Z,101787.91
2023-01-03T18:23:38.046Z,101793.69
2023-01-03T18:26:13.463Z,101796.34
2023-01-03T18:28:41.118Z,101793.53
2023-01-03T18:31:19.599Z,101790.28
2023-01-03T18:33:47.549Z,101797.03
2023-01-03T18:36:32.516Z,101800.16
2023-01-03T18:39:15.862Z,101793.25
2023-01-03T18:41:44.176Z,101787.88
2023-01-03T18:44:21.259Z,101792.28
2023-01-03T18:46:49.650Z,101795.50
2023-01-03T18:49:18.680Z,101788.91
2023-01-03T18:51:49.754Z,101796.78
2023-01-03T18:54:19.944Z,101795.50
2023-01-03T18:56:47.697Z,101789.56
2023-01-03T18:59:27.018Z,101796.09
2023-01-03T19:01:55.794Z,101793.69
2023-01-03T19:04:26.459Z,101798.78
2023-01-03T19:06:54.315Z,101791.28
2023-01-03T19:09:24.857Z,101796.94
2023-01-03T19:11:54.641Z,101803.72
2023-01-03T19:14:22.332Z,101785.41
2023-01-03T19:16:50.035Z,101789.03
2023-01-03T19:19:17.903Z,101794.94
2023-01-03T19:21:47.323Z,101801.16
2023-01-03T19:24:39.316Z,101803.75
2023-01-03T19:27:15.470Z,101795.25
2023-01-03T19:29:44.649Z,101797.53
2023-01-03T19:32:19.385Z,101800.22
2023-01-03T19:34:48.076Z,101799.06
2023-01-03T19:37:16.246Z,101812.19
2023-01-03T19:39:44.037Z,101803.44
2023-01-03T19:42:37.480Z,101802.88
2023-01-03T19:45:17.666Z,101812.06
2023-01-03T19:47:45.479Z,101804.41
2023-01-03T19:50:26.067Z,101806.03
2023-01-03T19:52:54.743Z,101807.44
2023-01-03T19:55:29.935Z,101807.00
2023-01-03T19:58:01.640Z,101800.38
2023-01-03T20:00:37.264Z,101812.78
2023-01-03T20:03:20.807Z,101807.13
2023-01-03T20:05:51.010Z,101811.94
2023-01-03T20:08:19.930Z,101810.94
2023-01-03T20:10:51.270Z,101812.22
2023-01-03T20:13:23.547Z,101806.56
2023-01-03T20:15:54.651Z,101809.84
2023-01-03T20:18:25.836Z,101812.81
2023-01-03T20:20:57.530Z,101809.94
2023-01-03T20:23:29.268Z,101808.25
2023-01-03T20:25:57.386Z,101815.03
2023-01-03T20:28:31.595Z,101811.66
2023-01-03T20:31:02.706Z,101813.50
2023-01-03T20:33:31.079Z,101818.69
2023-01-03T20:36:14.411Z,101827.72
2023-01-03T20:38:48.171Z,101815.31
2023-01-03T20:41:17.899Z,101817.56
2023-01-03T20:43:47.676Z,101816.03
2023-01-03T20:46:20.352Z,101817.69
2023-01-03T20:48:56.278Z,101822.22
2023-01-03T20:51:25.121Z,101820.13
2023-01-03T20:53:55.468Z,101820.13
2023-01-03T20:56:24.165Z,101824.91
2023-01-03T20:58:53.170Z,101830.41
2023-01-03T21:01:21.709Z,101830.84
2023-01-03T21:03:49.920Z,101829.28
2023-01-03T21:06:24.122Z,101824.91
2023-01-03T21:08:54.824Z,101831.09
2023-01-03T21:11:31.023Z,101826.88
2023-01-03T21:14:00.481Z,101831.66
2023-01-03T21:16:32.863Z,101825.19
2023-01-03T21:19:27.197Z,101825.69
2023-01-03T21:21:56.292Z,101830.50
2023-01-03T21:24:24.964Z,101828.25
2023-01-03T21:26:53.034Z,101824.00
2023-01-03T21:29:22.246Z,101831.06
2023-01-03T21:31:50.180Z,101818.94
2023-01-03T21:34:20.453Z,101831.19
2023-01-03T21:36:48.693Z,101826.28
2023-01-03T21:39:17.146Z,101821.59
2023-01-03T21:42:03.699Z,101813.59
2023-01-03T21:44:33.390Z,101807.59
2023-01-03T21:47:01.158Z,101809.63
2023-01-03T21:49:29.168Z,101816.53
2023-01-03T21:51:56.831Z,101813.41
2023-01-03T21:54:24.616Z,101818.66
2023-01-03T21:56:52.241Z,101812.44
2023-01-03T21:59:22.241Z,101822.28
2023-01-03T22:02:08.792Z,101816.03
2023-01-03T22:04:36.634Z,101823.38
2023-01-03T22:07:04.212Z,101815.63
2023-01-03T22:09:50.639Z,101812.38
2023-01-03T22:12:19.284Z,101810.66
2023-01-03T22:14:47.311Z,101816.34
2023-01-03T22:17:16.883Z,101816.84
2023-01-03T22:19:45.185Z,101817.09
2023-01-03T22:22:12.710Z,101813.41
2023-01-03T22:24:40.715Z,101810.59
2023-01-03T22:27:08.897Z,101808.63
2023-01-03T22:29:36.692Z,101810.97
2023-01-03T22:32:04.650Z,101813.34
2023-01-03T22:34:32.914Z,101812.28
2023-01-03T22:37:00.605Z,101811.25
2023-01-03T22:39:28.314Z,101809.16
2023-01-03T22:41:56.769Z,101807.47
2023-01-03T22:44:24.381Z,101807.16
2023-01-03T22:46:51.933Z,101814.63
2023-01-03T22:49:20.524Z,101801.13
2023-01-03T22:51:48.439Z,101820.03
2023-01-03T22:54:16.079Z,101817.09
2023-01-03T22:56:44.926Z,101819.06
2023-01-03T22:59:13.012Z,101816.00
2023-01-03T23:01:40.824Z,101810.94
2023-01-03T23:04:09.005Z,101818.63
2023-01-03T23:06:37.425Z,101828.34
2023-01-03T23:09:06.034Z,101830.38
2023-01-03T23:11:52.768Z,101825.38
2023-01-03T23:14:25.867Z,101820.13
2023-01-03T23:16:57.845Z,101825.94
2023-01-03T23:19:26.965Z,101819.53
2023-01-03T23:21:58.466Z,101811.22
2023-01-03T23:24:26.377Z,101815.88
2023-01-03T23:26:54.230Z,101817.09
2023-01-03T23:29:23.198Z,101818.34
2023-01-03T23:31:50.953Z,101822.72
2023-01-03T23:34:18.539Z,101825.94
2023-01-03T23:36:46.211Z,101830.75
2023-01-03T23:39:16.648Z,101826.03
2023-01-03T23:41:44.990Z,101825.94
2023-01-03T23:44:12.726Z,101814.66
2023-01-03T23:46:41.897Z,101824.25
2023-01-03T23:49:11.899Z,101830.75
2023-01-03T23:51:39.433Z,101833.88
2023-01-03T23:54:06.964Z,101829.16
2023-01-03T23:56:34.554Z,101833.97
2023-01-03T23:59:02.442Z,101834.25
